sensor_id;sensor_type;location;lat;lon;timestamp;pressure;altitude;pressure_sealevel;temperature
27986;BMP280;15453;53.692;10.168;2023-07-13T00:00:41;100920.97;;;22.20
27986;BMP280;15453;53.692;10.168;2023-07-13T00:03:07;100919.66;;;22.17
27986;BMP280;15453;53.692;10.168;2023-07-13T00:05:32;100918.84;;;22.17
27986;BMP280;15453;53.692;10.168;2023-07-13T00:07:57;100909.97;;;22.15
27986;BMP280;15453;53.692;10.168;2023-07-13T00:10:26;100903.91;;;22.13
27986;BMP280;15453;53.692;10.168;2023-07-13T00:12:51;100914.22;;;22.13
27986;BMP280;15453;53.692;10.168;2023-07-13T00:15:23;100908.47;;;22.09
27986;BMP280;15453;53.692;10.168;2023-07-13T00:17:50;100911.25;;;22.09
27986;BMP280;15453;53.692;10.168;2023-07-13T00:20:15;100914.38;;;22.08
27986;BMP280;15453;53.692;10.168;2023-07-13T00:22:40;100910.25;;;22.05
27986;BMP280;15453;53.692;10.168;2023-07-13T00:25:06;100910.25;;;22.05
27986;BMP280;15453;53.692;10.168;2023-07-13T00:27:33;100900.38;;;21.99
27986;BMP280;15453;53.692;10.168;2023-07-13T00:29:58;100900.38;;;21.99
27986;BMP280;15453;53.692;10.168;2023-07-13T00:32:24;100901.34;;;21.94
27986;BMP280;15453;53.692;10.168;2023-07-13T00:34:51;100902.81;;;21.92
27986;BMP280;15453;53.692;10.168;2023-07-13T00:37:16;100904.28;;;21.89
27986;BMP280;15453;53.692;10.168;2023-07-13T00:39:42;100902.63;;;21.88
27986;BMP280;15453;53.692;10.168;2023-07-13T00:42:07;100897.72;;;21.85
27986;BMP280;15453;53.692;10.168;2023-07-13T00:44:33;100897.19;;;21.83
27986;BMP280;15453;53.692;10.168;2023-07-13T00:46:58;100900.28;;;21.82
27986;BMP280;15453;53.692;10.168;2023-07-13T00:51:55;100909.63;;;21.77
27986;BMP280;15453;53.692;10.168;2023-07-13T00:54:24;100917.47;;;21.75
27986;BMP280;15453;53.692;10.168;2023-07-13T00:56:52;100917.00;;;21.73
27986;BMP280;15453;53.692;10.168;2023-07-13T00:59:20;100909.25;;;21.70
27986;BMP280;15453;53.692;10.168;2023-07-13T01:01:47;100908.69;;;21.68
27986;BMP280;15453;53.692;10.168;2023-07-13T01:04:12;100906.88;;;21.64
27986;BMP280;15453;53.692;10.168;2023-07-13T01:06:39;100903.56;;;21.62
27986;BMP280;15453;53.692;10.168;2023-07-13T01:09:07;100908.97;;;21.58
27986;BMP280;15453;53.692;10.168;2023-07-13T01:11:33;100902.06;;;21.56
27986;BMP280;15453;53.692;10.168;2023-07-13T01:14:00;100910.25;;;21.52
27986;BMP280;15453;53.692;10.168;2023-07-13T01:16:32;100906.47;;;21.48
27986;BMP280;15453;53.692;10.168;2023-07-13T01:18:58;100909.56;;;21.47
27986;BMP280;15453;53.692;10.168;2023-07-13T01:21:24;100902.66;;;21.44
27986;BMP280;15453;53.692;10.168;2023-07-13T01:23:50;100911.66;;;21.41
27986;BMP280;15453;53.692;10.168;2023-07-13T01:26:16;100904.75;;;21.39
27986;BMP280;15453;53.692;10.168;2023-07-13T01:28:41;100899.31;;;21.34
27986;BMP280;15453;53.692;10.168;2023-07-13T01:31:06;100899.31;;;21.34
27986;BMP280;15453;53.692;10.168;2023-07-13T01:33:33;100907.78;;;21.29
27986;BMP280;15453;53.692;10.168;2023-07-13T01:35:59;100904.97;;;21.29
27986;BMP280;15453;53.692;10.168;2023-07-13T01:38:25;100905.63;;;21.26
27986;BMP280;15453;53.692;10.168;2023-07-13T01:40:51;100901.00;;;21.21
27986;BMP280;15453;53.692;10.168;2023-07-13T01:43:18;100913.28;;;21.20
27986;BMP280;15453;53.692;10.168;2023-07-13T01:45:44;100908.34;;;21.17
27986;BMP280;15453;53.692;10.168;2023-07-13T01:48:10;100910.09;;;21.13
27986;BMP280;15453;53.692;10.168;2023-07-13T01:50:36;100904.84;;;21.12
27986;BMP280;15453;53.692;10.168;2023-07-13T01:53:02;100901.56;;;21.10
27986;BMP280;15453;53.692;10.168;2023-07-13T01:55:28;100901.38;;;21.06
27986;BMP280;15453;53.692;10.168;2023-07-13T01:57:53;100901.69;;;21.05
27986;BMP280;15453;53.692;10.168;2023-07-13T02:00:19;100907.88;;;21.02
27986;BMP280;15453;53.692;10.168;2023-07-13T02:02:48;100908.19;;;21.00
27986;BMP280;15453;53.692;10.168;2023-07-13T02:05:14;100899.34;;;20.98
27986;BMP280;15453;53.692;10.168;2023-07-13T02:07:39;100904.41;;;20.96
27986;BMP280;15453;53.692;10.168;2023-07-13T02:10:06;100904.41;;;20.96
27986;BMP280;15453;53.692;10.168;2023-07-13T02:12:33;100906.16;;;20.92
27986;BMP280;15453;53.692;10.168;2023-07-13T02:14:58;100903.97;;;20.89
27986;BMP280;15453;53.692;10.168;2023-07-13T02:17:24;100894.63;;;20.85
27986;BMP280;15453;53.692;10.168;2023-07-13T02:19:49;100908.31;;;20.82
27986;BMP280;15453;53.692;10.168;2023-07-13T02:22:18;100908.31;;;20.82
27986;BMP280;15453;53.692;10.168;2023-07-13T02:24:43;100902.03;;;20.76
27986;BMP280;15453;53.692;10.168;2023-07-13T02:27:09;100902.38;;;20.75
27986;BMP280;15453;53.692;10.168;2023-07-13T02:29:34;100911.34;;;20.72
27986;BMP280;15453;53.692;10.168;2023-07-13T02:31:59;100911.34;;;20.72
27986;BMP280;15453;53.692;10.168;2023-07-13T02:34:25;100903.91;;;20.67
27986;BMP280;15453;53.692;10.168;2023-07-13T02:36:50;100912.06;;;20.64
27986;BMP280;15453;53.692;10.168;2023-07-13T02:39:15;100908.47;;;20.63
27986;BMP280;15453;53.692;10.168;2023-07-13T02:41:41;100911.56;;;20.62
27986;BMP280;15453;53.692;10.168;2023-07-13T02:44:06;100903.84;;;20.59
27986;BMP280;15453;53.692;10.168;2023-07-13T02:46:34;100903.84;;;20.59
27986;BMP280;15453;53.692;10.168;2023-07-13T02:49:00;100907.25;;;20.56
27986;BMP280;15453;53.692;10.168;2023-07-13T02:51:26;100907.25;;;20.56
27986;BMP280;15453;53.692;10.168;2023-07-13T02:53:51;100914.25;;;20.53
27986;BMP280;15453;53.692;10.168;2023-07-13T02:56:18;100914.25;;;20.53
27986;BMP280;15453;53.692;10.168;2023-07-13T02:58:44;100907.66;;;20.49
27986;BMP280;15453;53.692;10.168;2023-07-13T03:01:10;100907.97;;;20.48
27986;BMP280;15453;53.692;10.168;2023-07-13T03:03:36;100913.84;;;20.46
27986;BMP280;15453;53.692;10.168;2023-07-13T03:06:04;100913.84;;;20.46
27986;BMP280;15453;53.692;10.168;2023-07-13T03:08:31;100914.47;;;20.43
27986;BMP280;15453;53.692;10.168;2023-07-13T03:11:06;100914.47;;;20.43
27986;BMP280;15453;53.692;10.168;2023-07-13T03:13:32;100917.88;;;20.40
27986;BMP280;15453;53.692;10.168;2023-07-13T03:15:57;100914.25;;;20.40
27986;BMP280;15453;53.692;10.168;2023-07-13T03:18:22;100903.75;;;20.37
27986;BMP280;15453;53.692;10.168;2023-07-13T03:20:50;100908.50;;;20.36
27986;BMP280;15453;53.692;10.168;2023-07-13T03:23:16;100907.97;;;20.34
27986;BMP280;15453;53.692;10.168;2023-07-13T03:25:42;100908.28;;;20.33
27986;BMP280;15453;53.692;10.168;2023-07-13T03:28:07;100913.03;;;20.32
27986;BMP280;15453;53.692;10.168;2023-07-13T03:30:32;100906.94;;;20.30
27986;BMP280;15453;53.692;10.168;2023-07-13T03:32:58;100903.34;;;20.30
27986;BMP280;15453;53.692;10.168;2023-07-13T03:35:23;100900.88;;;20.28
27986;BMP280;15453;53.692;10.168;2023-07-13T03:37:48;100909.53;;;20.27
27986;BMP280;15453;53.692;10.168;2023-07-13T03:40:14;100906.75;;;20.27
27986;BMP280;15453;53.692;10.168;2023-07-13T03:42:39;100903.97;;;20.27
27986;BMP280;15453;53.692;10.168;2023-07-13T03:45:05;100905.09;;;20.26
27986;BMP280;15453;53.692;10.168;2023-07-13T03:47:30;100901.19;;;20.27
27986;BMP280;15453;53.692;10.168;2023-07-13T03:49:55;100901.19;;;20.27
27986;BMP280;15453;53.692;10.168;2023-07-13T03:52:20;100892.00;;;20.26
27986;BMP280;15453;53.692;10.168;2023-07-13T03:54:46;100896.47;;;20.27
27986;BMP280;15453;53.692;10.168;2023-07-13T03:57:11;100904.47;;;20.29
27986;BMP280;15453;53.692;10.168;2023-07-13T03:59:36;100904.81;;;20.27
27986;BMP280;15453;53.692;10.168;2023-07-13T04:02:02;100904.81;;;20.27
27986;BMP280;15453;53.692;10.168;2023-07-13T04:04:29;100903.13;;;20.26
27986;BMP280;15453;53.692;10.168;2023-07-13T04:06:55;100907.88;;;20.26
27986;BMP280;15453;53.692;10.168;2023-07-13T04:09:21;100907.59;;;20.27
27986;BMP280;15453;53.692;10.168;2023-07-13T04:11:46;100911.47;;;20.26
27986;BMP280;15453;53.692;10.168;2023-07-13T04:14:11;100917.03;;;20.26
27986;BMP280;15453;53.692;10.168;2023-07-13T04:16:37;100918.19;;;20.25
27986;BMP280;15453;53.692;10.168;2023-07-13T04:19:02;100920.13;;;20.25
27986;BMP280;15453;53.692;10.168;2023-07-13T04:21:29;100920.13;;;20.25
27986;BMP280;15453;53.692;10.168;2023-07-13T04:23:55;100919.63;;;20.23
27986;BMP280;15453;53.692;10.168;2023-07-13T04:26:20;100919.63;;;20.23
27986;BMP280;15453;53.692;10.168;2023-07-13T04:28:47;100914.97;;;20.18
27986;BMP280;15453;53.692;10.168;2023-07-13T04:31:12;100919.13;;;20.21
27986;BMP280;15453;53.692;10.168;2023-07-13T04:33:37;100913.75;;;20.24
27986;BMP280;15453;53.692;10.168;2023-07-13T04:36:04;100913.75;;;20.24
27986;BMP280;15453;53.692;10.168;2023-07-13T04:38:31;100918.19;;;20.25
27986;BMP280;15453;53.692;10.168;2023-07-13T04:41:01;100918.19;;;20.25
27986;BMP280;15453;53.692;10.168;2023-07-13T04:43:27;100911.47;;;20.26
27986;BMP280;15453;53.692;10.168;2023-07-13T04:45:53;100911.47;;;20.26
27986;BMP280;15453;53.692;10.168;2023-07-13T04:48:19;100912.63;;;20.25
27986;BMP280;15453;53.692;10.168;2023-07-13T04:50:45;100919.81;;;20.26
27986;BMP280;15453;53.692;10.168;2023-07-13T04:53:11;100915.59;;;20.29
27986;BMP280;15453;53.692;10.168;2023-07-13T04:55:37;100918.06;;;20.30
27986;BMP280;15453;53.692;10.168;2023-07-13T04:58:03;100918.59;;;20.32
27986;BMP280;15453;53.692;10.168;2023-07-13T05:00:29;100925.81;;;20.33
27986;BMP280;15453;53.692;10.168;2023-07-13T05:02:56;100936.03;;;20.38
27986;BMP280;15453;53.692;10.168;2023-07-13T05:05:22;100936.03;;;20.38
27986;BMP280;15453;53.692;10.168;2023-07-13T05:07:47;100925.09;;;20.41
27986;BMP280;15453;53.692;10.168;2023-07-13T05:10:12;100942.28;;;20.43
27986;BMP280;15453;53.692;10.168;2023-07-13T05:12:38;100942.50;;;20.47
27986;BMP280;15453;53.692;10.168;2023-07-13T05:15:03;100940.22;;;20.49
27986;BMP280;15453;53.692;10.168;2023-07-13T05:17:29;100935.69;;;20.53
27986;BMP280;15453;53.692;10.168;2023-07-13T05:19:54;100935.91;;;20.56
27986;BMP280;15453;53.692;10.168;2023-07-13T05:22:19;100935.91;;;20.56
27986;BMP280;15453;53.692;10.168;2023-07-13T05:24:45;100945.78;;;20.62
27986;BMP280;15453;53.692;10.168;2023-07-13T05:27:10;100944.88;;;20.67
27986;BMP280;15453;53.692;10.168;2023-07-13T05:29:36;100944.88;;;20.67
27986;BMP280;15453;53.692;10.168;2023-07-13T05:32:01;100947.22;;;20.73
27986;BMP280;15453;53.692;10.168;2023-07-13T05:34:26;100949.34;;;20.76
27986;BMP280;15453;53.692;10.168;2023-07-13T05:36:51;100949.34;;;20.76
27986;BMP280;15453;53.692;10.168;2023-07-13T05:39:17;100947.41;;;20.77
27986;BMP280;15453;53.692;10.168;2023-07-13T05:41:42;100951.09;;;20.86
27986;BMP280;15453;53.692;10.168;2023-07-13T05:44:08;100954.63;;;20.91
27986;BMP280;15453;53.692;10.168;2023-07-13T05:46:33;100963.47;;;20.93
27986;BMP280;15453;53.692;10.168;2023-07-13T05:48:58;100956.50;;;20.96
27986;BMP280;15453;53.692;10.168;2023-07-13T05:51:24;100962.25;;;20.99
27986;BMP280;15453;53.692;10.168;2023-07-13T05:53:49;100954.91;;;21.03
27986;BMP280;15453;53.692;10.168;2023-07-13T05:56:15;100957.09;;;21.06
27986;BMP280;15453;53.692;10.168;2023-07-13T05:58:40;100955.31;;;21.10
27986;BMP280;15453;53.692;10.168;2023-07-13T06:01:08;100955.31;;;21.10
27986;BMP280;15453;53.692;10.168;2023-07-13T06:03:34;100956.44;;;21.09
27986;BMP280;15453;53.692;10.168;2023-07-13T06:05:59;100959.63;;;21.16
27986;BMP280;15453;53.692;10.168;2023-07-13T06:08:26;100959.63;;;21.16
27986;BMP280;15453;53.692;10.168;2023-07-13T06:10:52;100954.91;;;21.17
27986;BMP280;15453;53.692;10.168;2023-07-13T06:13:17;100971.66;;;21.25
27986;BMP280;15453;53.692;10.168;2023-07-13T06:15:48;100972.19;;;21.27
27986;BMP280;15453;53.692;10.168;2023-07-13T06:18:14;100975.47;;;21.29
27986;BMP280;15453;53.692;10.168;2023-07-13T06:20:39;100975.47;;;21.29
27986;BMP280;15453;53.692;10.168;2023-07-13T06:23:04;100977.63;;;21.32
27986;BMP280;15453;53.692;10.168;2023-07-13T06:25:30;100974.53;;;21.34
27986;BMP280;15453;53.692;10.168;2023-07-13T06:27:55;100976.69;;;21.37
27986;BMP280;15453;53.692;10.168;2023-07-13T06:30:20;100977.50;;;21.37
27986;BMP280;15453;53.692;10.168;2023-07-13T06:32:46;100968.84;;;21.39
27986;BMP280;15453;53.692;10.168;2023-07-13T06:35:11;100974.91;;;21.41
27986;BMP280;15453;53.692;10.168;2023-07-13T06:37:38;100974.91;;;21.41
27986;BMP280;15453;53.692;10.168;2023-07-13T06:40:04;100963.75;;;21.41
27986;BMP280;15453;53.692;10.168;2023-07-13T06:42:30;100973.78;;;21.42
27986;BMP280;15453;53.692;10.168;2023-07-13T06:44:55;100983.34;;;21.49
27986;BMP280;15453;53.692;10.168;2023-07-13T06:47:20;100983.84;;;21.51
27986;BMP280;15453;53.692;10.168;2023-07-13T06:49:46;100977.97;;;21.53
27986;BMP280;15453;53.692;10.168;2023-07-13T06:52:11;100983.22;;;21.54
27986;BMP280;15453;53.692;10.168;2023-07-13T06:54:36;100990.66;;;21.59
27986;BMP280;15453;53.692;10.168;2023-07-13T06:57:01;100987.19;;;21.62
27986;BMP280;15453;53.692;10.168;2023-07-13T06:59:27;100993.31;;;21.64
27986;BMP280;15453;53.692;10.168;2023-07-13T07:01:52;100988.56;;;21.64
27986;BMP280;15453;53.692;10.168;2023-07-13T07:04:17;100988.56;;;21.64
27986;BMP280;15453;53.692;10.168;2023-07-13T07:06:42;100992.88;;;21.70
27986;BMP280;15453;53.692;10.168;2023-07-13T07:09:08;100992.88;;;21.70
27986;BMP280;15453;53.692;10.168;2023-07-13T07:11:34;100987.31;;;21.70
27986;BMP280;15453;53.692;10.168;2023-07-13T07:13:59;100996.06;;;21.77
27986;BMP280;15453;53.692;10.168;2023-07-13T07:16:25;100993.47;;;21.81
27986;BMP280;15453;53.692;10.168;2023-07-13T07:18:50;100996.41;;;21.84
27986;BMP280;15453;53.692;10.168;2023-07-13T07:21:15;100996.41;;;21.84
27986;BMP280;15453;53.692;10.168;2023-07-13T07:23:42;100992.06;;;21.92
27986;BMP280;15453;53.692;10.168;2023-07-13T07:26:07;100993.06;;;21.96
27986;BMP280;15453;53.692;10.168;2023-07-13T07:28:35;100990.94;;;22.01
27986;BMP280;15453;53.692;10.168;2023-07-13T07:31:00;100990.94;;;22.01
27986;BMP280;15453;53.692;10.168;2023-07-13T07:33:26;100988.16;;;22.01
27986;BMP280;15453;53.692;10.168;2023-07-13T07:35:51;100984.75;;;22.04
27986;BMP280;15453;53.692;10.168;2023-07-13T07:38:17;100997.09;;;22.12
27986;BMP280;15453;53.692;10.168;2023-07-13T07:40:42;100997.09;;;22.12
27986;BMP280;15453;53.692;10.168;2023-07-13T07:43:09;100993.28;;;22.08
27986;BMP280;15453;53.692;10.168;2023-07-13T07:45:35;100994.50;;;22.16
27986;BMP280;15453;53.692;10.168;2023-07-13T07:48:02;101000.88;;;22.16
27986;BMP280;15453;53.692;10.168;2023-07-13T07:50:28;100998.78;;;22.22
27986;BMP280;15453;53.692;10.168;2023-07-13T07:52:54;100998.78;;;22.22
27986;BMP280;15453;53.692;10.168;2023-07-13T07:55:21;100993.72;;;22.24
27986;BMP280;15453;53.692;10.168;2023-07-13T07:57:46;100987.53;;;22.35
27986;BMP280;15453;53.692;10.168;2023-07-13T08:00:12;100986.56;;;22.40
27986;BMP280;15453;53.692;10.168;2023-07-13T08:02:37;100994.53;;;22.46
27986;BMP280;15453;53.692;10.168;2023-07-13T08:05:03;100993.53;;;22.51
27986;BMP280;15453;53.692;10.168;2023-07-13T08:07:30;100993.53;;;22.51
27986;BMP280;15453;53.692;10.168;2023-07-13T08:09:56;100991.75;;;22.55
27986;BMP280;15453;53.692;10.168;2023-07-13T08:12:21;100990.31;;;22.66
27986;BMP280;15453;53.692;10.168;2023-07-13T08:14:49;100990.47;;;22.69
27986;BMP280;15453;53.692;10.168;2023-07-13T08:17:18;100983.09;;;22.73
27986;BMP280;15453;53.692;10.168;2023-07-13T08:19:43;100983.09;;;22.73
27986;BMP280;15453;53.692;10.168;2023-07-13T08:22:08;100991.84;;;22.80
27986;BMP280;15453;53.692;10.168;2023-07-13T08:24:34;100984.28;;;22.81
27986;BMP280;15453;53.692;10.168;2023-07-13T08:26:59;100980.66;;;22.80
27986;BMP280;15453;53.692;10.168;2023-07-13T08:29:24;100980.66;;;22.80
27986;BMP280;15453;53.692;10.168;2023-07-13T08:31:50;100999.91;;;22.82
27986;BMP280;15453;53.692;10.168;2023-07-13T08:34:15;100991.16;;;22.83
27986;BMP280;15453;53.692;10.168;2023-07-13T08:36:41;100992.53;;;22.86
27986;BMP280;15453;53.692;10.168;2023-07-13T08:39:06;100994.31;;;22.90
27986;BMP280;15453;53.692;10.168;2023-07-13T08:41:32;100994.31;;;22.90
27986;BMP280;15453;53.692;10.168;2023-07-13T08:43:59;100977.72;;;22.94
27986;BMP280;15453;53.692;10.168;2023-07-13T08:46:36;100993.69;;;23.02
27986;BMP280;15453;53.692;10.168;2023-07-13T08:49:28;100990.63;;;23.20
27986;BMP280;15453;53.692;10.168;2023-07-13T08:52:02;100991.81;;;23.28
27986;BMP280;15453;53.692;10.168;2023-07-13T08:54:36;100991.81;;;23.28
27986;BMP280;15453;53.692;10.168;2023-07-13T08:57:11;101004.16;;;23.44
27986;BMP280;15453;53.692;10.168;2023-07-13T08:59:37;101004.16;;;23.44
27986;BMP280;15453;53.692;10.168;2023-07-13T09:05:03;100994.75;;;23.57
27986;BMP280;15453;53.692;10.168;2023-07-13T09:10:26;100983.88;;;23.72
27986;BMP280;15453;53.692;10.168;2023-07-13T09:15:55;100988.16;;;23.87
27986;BMP280;15453;53.692;10.168;2023-07-13T09:18:32;100990.16;;;23.95
27986;BMP280;15453;53.692;10.168;2023-07-13T09:23:28;100990.28;;;24.07
27986;BMP280;15453;53.692;10.168;2023-07-13T09:26:01;100996.19;;;24.14
27986;BMP280;15453;53.692;10.168;2023-07-13T09:28:29;100987.63;;;24.19
27986;BMP280;15453;53.692;10.168;2023-07-13T09:31:08;100993.84;;;24.24
27986;BMP280;15453;53.692;10.168;2023-07-13T09:33:37;100992.84;;;24.29
27986;BMP280;15453;53.692;10.168;2023-07-13T09:36:17;100991.50;;;24.35
27986;BMP280;15453;53.692;10.168;2023-07-13T09:38:44;100981.28;;;24.39
27986;BMP280;15453;53.692;10.168;2023-07-13T09:41:19;100978.31;;;24.44
27986;BMP280;15453;53.692;10.168;2023-07-13T09:44:12;100989.66;;;24.47
27986;BMP280;15453;53.692;10.168;2023-07-13T09:46:40;100975.44;;;24.52
27986;BMP280;15453;53.692;10.168;2023-07-13T09:49:09;100981.69;;;24.58
27986;BMP280;15453;53.692;10.168;2023-07-13T09:51:37;100978.06;;;24.66
27986;BMP280;15453;53.692;10.168;2023-07-13T09:54:02;100989.91;;;24.71
27986;BMP280;15453;53.692;10.168;2023-07-13T09:56:28;100988.41;;;24.74
27986;BMP280;15453;53.692;10.168;2023-07-13T09:58:55;100999.75;;;24.77
27986;BMP280;15453;53.692;10.168;2023-07-13T10:01:35;100996.75;;;24.82
27986;BMP280;15453;53.692;10.168;2023-07-13T10:04:01;100986.84;;;24.85
27986;BMP280;15453;53.692;10.168;2023-07-13T10:06:27;100998.53;;;24.87
27986;BMP280;15453;53.692;10.168;2023-07-13T10:08:55;100993.41;;;24.89
27986;BMP280;15453;53.692;10.168;2023-07-13T10:11:23;100998.03;;;24.85
27986;BMP280;15453;53.692;10.168;2023-07-13T10:14:01;100992.94;;;24.87
27986;BMP280;15453;53.692;10.168;2023-07-13T10:16:33;100994.91;;;24.86
27986;BMP280;15453;53.692;10.168;2023-07-13T10:19:02;100992.28;;;24.90
27986;BMP280;15453;53.692;10.168;2023-07-13T10:21:43;100985.63;;;24.94
27986;BMP280;15453;53.692;10.168;2023-07-13T10:24:16;100978.88;;;24.95
27986;BMP280;15453;53.692;10.168;2023-07-13T10:26:52;100983.00;;;24.98
27986;BMP280;15453;53.692;10.168;2023-07-13T10:29:22;100969.44;;;25.00
27986;BMP280;15453;53.692;10.168;2023-07-13T10:31:48;100972.88;;;25.05
27986;BMP280;15453;53.692;10.168;2023-07-13T10:34:15;100986.34;;;25.12
27986;BMP280;15453;53.692;10.168;2023-07-13T10:36:46;100986.34;;;25.12
27986;BMP280;15453;53.692;10.168;2023-07-13T10:39:20;100978.63;;;25.09
27986;BMP280;15453;53.692;10.168;2023-07-13T10:41:51;100965.56;;;25.13
27986;BMP280;15453;53.692;10.168;2023-07-13T10:44:21;100983.84;;;25.19
27986;BMP280;15453;53.692;10.168;2023-07-13T10:46:50;100973.19;;;25.33
27986;BMP280;15453;53.692;10.168;2023-07-13T10:49:17;100969.63;;;25.44
27986;BMP280;15453;53.692;10.168;2023-07-13T10:51:43;100968.53;;;25.57
27986;BMP280;15453;53.692;10.168;2023-07-13T10:56:45;100967.00;;;25.80
27986;BMP280;15453;53.692;10.168;2023-07-13T10:59:15;100975.94;;;25.94
27986;BMP280;15453;53.692;10.168;2023-07-13T11:01:50;100981.16;;;26.04
27986;BMP280;15453;53.692;10.168;2023-07-13T11:04:18;100971.25;;;26.19
27986;BMP280;15453;53.692;10.168;2023-07-13T11:06:47;100969.00;;;26.24
27986;BMP280;15453;53.692;10.168;2023-07-13T11:12:00;100980.59;;;26.23
27986;BMP280;15453;53.692;10.168;2023-07-13T11:17:47;100975.44;;;26.25
27986;BMP280;15453;53.692;10.168;2023-07-13T11:22:45;100975.78;;;26.23
27986;BMP280;15453;53.692;10.168;2023-07-13T11:27:51;101005.88;;;26.23
27986;BMP280;15453;53.692;10.168;2023-07-13T11:30:23;101005.88;;;26.23
27986;BMP280;15453;53.692;10.168;2023-07-13T11:33:20;101016.72;;;26.12
27986;BMP280;15453;53.692;10.168;2023-07-13T11:36:00;101004.31;;;25.93
27986;BMP280;15453;53.692;10.168;2023-07-13T11:38:33;101011.22;;;25.83
27986;BMP280;15453;53.692;10.168;2023-07-13T11:41:03;101018.41;;;25.72
27986;BMP280;15453;53.692;10.168;2023-07-13T11:43:29;101020.81;;;25.62
27986;BMP280;15453;53.692;10.168;2023-07-13T11:45:54;101024.09;;;25.43
27986;BMP280;15453;53.692;10.168;2023-07-13T11:48:26;101024.09;;;25.43
27986;BMP280;15453;53.692;10.168;2023-07-13T11:51:00;101031.25;;;25.32
27986;BMP280;15453;53.692;10.168;2023-07-13T11:53:29;101021.91;;;25.20
27986;BMP280;15453;53.692;10.168;2023-07-13T11:55:57;101034.00;;;25.12
27986;BMP280;15453;53.692;10.168;2023-07-13T11:58:23;101028.94;;;25.05
27986;BMP280;15453;53.692;10.168;2023-07-13T12:00:49;101027.22;;;25.13
27986;BMP280;15453;53.692;10.168;2023-07-13T12:03:19;101027.22;;;25.13
27986;BMP280;15453;53.692;10.168;2023-07-13T12:06:05;101032.63;;;25.18
27986;BMP280;15453;53.692;10.168;2023-07-13T12:08:37;101032.09;;;25.24
27986;BMP280;15453;53.692;10.168;2023-07-13T12:11:06;101029.91;;;25.38
27986;BMP280;15453;53.692;10.168;2023-07-13T12:13:37;101043.31;;;25.53
27986;BMP280;15453;53.692;10.168;2023-07-13T12:16:11;101038.72;;;25.69
27986;BMP280;15453;53.692;10.168;2023-07-13T12:18:37;101059.25;;;25.82
27986;BMP280;15453;53.692;10.168;2023-07-13T12:21:03;101066.41;;;25.91
27986;BMP280;15453;53.692;10.168;2023-07-13T12:23:33;101064.59;;;25.95
27986;BMP280;15453;53.692;10.168;2023-07-13T12:26:01;101086.75;;;25.88
27986;BMP280;15453;53.692;10.168;2023-07-13T12:28:33;101102.25;;;25.74
27986;BMP280;15453;53.692;10.168;2023-07-13T12:31:07;101130.22;;;25.33
27986;BMP280;15453;53.692;10.168;2023-07-13T12:33:44;101130.22;;;25.33
27986;BMP280;15453;53.692;10.168;2023-07-13T12:36:11;101134.81;;;25.00
27986;BMP280;15453;53.692;10.168;2023-07-13T12:38:37;101150.06;;;24.73
27986;BMP280;15453;53.692;10.168;2023-07-13T12:41:02;101152.72;;;24.44
27986;BMP280;15453;53.692;10.168;2023-07-13T12:43:33;101153.09;;;24.17
27986;BMP280;15453;53.692;10.168;2023-07-13T12:46:05;101170.16;;;23.90
27986;BMP280;15453;53.692;10.168;2023-07-13T12:48:41;101163.38;;;23.66
27986;BMP280;15453;53.692;10.168;2023-07-13T12:51:10;101164.31;;;23.44
27986;BMP280;15453;53.692;10.168;2023-07-13T12:53:39;101162.59;;;23.26
27986;BMP280;15453;53.692;10.168;2023-07-13T12:56:05;101155.94;;;23.14
27986;BMP280;15453;53.692;10.168;2023-07-13T12:58:41;101157.88;;;23.05
27986;BMP280;15453;53.692;10.168;2023-07-13T13:01:10;101161.97;;;22.99
27986;BMP280;15453;53.692;10.168;2023-07-13T13:03:40;101158.88;;;23.00
27986;BMP280;15453;53.692;10.168;2023-07-13T13:06:21;101153.59;;;22.99
27986;BMP280;15453;53.692;10.168;2023-07-13T13:08:50;101157.41;;;23.03
27986;BMP280;15453;53.692;10.168;2023-07-13T13:11:17;101151.50;;;23.13
27986;BMP280;15453;53.692;10.168;2023-07-13T13:13:42;101155.81;;;23.19
27986;BMP280;15453;53.692;10.168;2023-07-13T13:16:11;101153.72;;;23.24
27986;BMP280;15453;53.692;10.168;2023-07-13T13:18:37;101162.13;;;23.33
27986;BMP280;15453;53.692;10.168;2023-07-13T13:21:02;101155.75;;;23.41
27986;BMP280;15453;53.692;10.168;2023-07-13T13:23:28;101162.19;;;23.50
27986;BMP280;15453;53.692;10.168;2023-07-13T13:25:53;101165.34;;;23.57
27986;BMP280;15453;53.692;10.168;2023-07-13T13:28:20;101166.50;;;23.64
27986;BMP280;15453;53.692;10.168;2023-07-13T13:30:48;101173.56;;;23.70
27986;BMP280;15453;53.692;10.168;2023-07-13T13:33:19;101165.03;;;23.75
27986;BMP280;15453;53.692;10.168;2023-07-13T13:35:46;101170.81;;;23.79
27986;BMP280;15453;53.692;10.168;2023-07-13T13:38:24;101160.94;;;23.81
27986;BMP280;15453;53.692;10.168;2023-07-13T13:40:50;101160.28;;;23.84
27986;BMP280;15453;53.692;10.168;2023-07-13T13:43:18;101157.66;;;23.88
27986;BMP280;15453;53.692;10.168;2023-07-13T13:45:44;101165.09;;;23.92
27986;BMP280;15453;53.692;10.168;2023-07-13T13:48:18;101163.63;;;23.95
27986;BMP280;15453;53.692;10.168;2023-07-13T13:50:44;101166.56;;;23.98
27986;BMP280;15453;53.692;10.168;2023-07-13T13:53:11;101162.81;;;24.03
27986;BMP280;15453;53.692;10.168;2023-07-13T13:55:37;101168.22;;;24.08
27986;BMP280;15453;53.692;10.168;2023-07-13T13:58:03;101176.78;;;24.11
27986;BMP280;15453;53.692;10.168;2023-07-13T14:00:29;101173.31;;;24.14
27986;BMP280;15453;53.692;10.168;2023-07-13T14:02:55;101182.22;;;24.16
27986;BMP280;15453;53.692;10.168;2023-07-13T14:05:23;101186.66;;;24.26
27986;BMP280;15453;53.692;10.168;2023-07-13T14:07:51;101186.66;;;24.26
27986;BMP280;15453;53.692;10.168;2023-07-13T14:10:18;101171.34;;;24.23
27986;BMP280;15453;53.692;10.168;2023-07-13T14:12:47;101165.09;;;24.26